createdAt,value
2018-12-09T00:00:40.538Z,84.15
2018-12-09T00:03:11.823Z,84.67
2018-12-09T00:05:43.147Z,82.47
2018-12-09T00:08:14.144Z,81.60
2018-12-09T00:10:48.085Z,80.87
2018-12-09T00:13:19.272Z,81.15
2018-12-09T00:15:51.215Z,80.92
2018-12-09T00:18:22.482Z,79.32
2018-12-09T00:20:53.352Z,79.23
2018-12-09T00:23:24.119Z,79.19
2018-12-09T00:25:56.283Z,79.26
2018-12-09T00:28:27.554Z,79.55
2018-12-09T00:31:01.762Z,79.09
2018-12-09T00:33:37.570Z,79.57
2018-12-09T00:36:12.002Z,79.48
2018-12-09T00:38:46.479Z,79.49
2018-12-09T00:41:28.515Z,79.99
2018-12-09T00:44:04.260Z,80.39
2018-12-09T00:46:35.455Z,78.37
2018-12-09T00:49:12.162Z,77.54
2018-12-09T00:57:41.420Z,75.23
2018-12-09T01:03:13.457Z,74.47
2018-12-09T01:05:49.784Z,74.33
2018-12-09T01:08:20.585Z,74.38
2018-12-09T01:10:54.719Z,74.06
2018-12-09T01:13:27.478Z,73.73
2018-12-09T01:16:02.273Z,73.80
2018-12-09T01:21:40.528Z,72.79
2018-12-09T01:24:16.429Z,72.35
2018-12-09T01:26:47.572Z,72.57
2018-12-09T01:29:22.510Z,72.75
2018-12-09T01:31:53.409Z,71.82
2018-12-09T01:34:24.372Z,72.43
2018-12-09T01:36:58.241Z,71.97
2018-12-09T01:39:34.492Z,71.44
2018-12-09T01:45:03.691Z,69.73
2018-12-09T01:47:35.837Z,69.52
2018-12-09T01:50:10.645Z,68.57
2018-12-09T01:53:02.739Z,67.23
2018-12-09T01:55:40.580Z,66.91
2018-12-09T01:58:26.649Z,65.89
2018-12-09T02:01:00.605Z,65.76
2018-12-09T02:03:33.263Z,65.87
2018-12-09T02:06:07.649Z,67.88
2018-12-09T02:08:43.281Z,68.01
2018-12-09T02:11:18.127Z,67.87
2018-12-09T02:13:52.302Z,67.82
2018-12-09T02:16:24.157Z,68.85
2018-12-09T02:19:05.969Z,69.33
2018-12-09T02:21:36.811Z,70.72
2018-12-09T02:24:07.938Z,73.43
2018-12-09T02:26:39.324Z,76.53
2018-12-09T02:29:10.300Z,77.73
2018-12-09T02:31:41.070Z,81.14
2018-12-09T02:34:12.046Z,85.46
2018-12-09T02:36:42.857Z,87.04
2018-12-09T02:39:14.801Z,89.20
2018-12-09T02:41:49.350Z,87.89
2018-12-09T02:44:23.972Z,87.33
2018-12-09T02:46:55.011Z,89.58
2018-12-09T02:49:26.131Z,88.01
2018-12-09T02:52:08.382Z,87.83
2018-12-09T02:54:41.146Z,87.47
2018-12-09T02:57:11.982Z,85.90
2018-12-09T02:59:43.411Z,86.31
2018-12-09T03:02:14.578Z,88.12
2018-12-09T03:04:45.377Z,89.26
2018-12-09T03:07:16.551Z,91.93
2018-12-09T03:09:50.998Z,94.07
2018-12-09T03:12:25.035Z,95.56
2018-12-09T03:14:56.446Z,96.53
2018-12-09T03:17:27.483Z,96.26
2018-12-09T03:19:58.189Z,94.96
2018-12-09T03:22:40.107Z,93.45
2018-12-09T03:25:10.867Z,91.33
2018-12-09T03:27:41.585Z,90.72
2018-12-09T03:30:16.219Z,89.55
2018-12-09T03:32:52.769Z,90.45
2018-12-09T03:35:26.670Z,88.99
2018-12-09T03:38:01.330Z,89.21
2018-12-09T03:40:36.645Z,85.52
2018-12-09T03:43:08.742Z,86.33
2018-12-09T03:45:39.574Z,86.24
2018-12-09T03:48:10.666Z,86.39
2018-12-09T03:50:41.610Z,84.38
2018-12-09T03:53:17.890Z,83.27
2018-12-09T03:55:49.524Z,82.37
2018-12-09T03:58:23.558Z,83.13
2018-12-09T04:01:00.342Z,81.23
2018-12-09T04:03:34.555Z,82.46
2018-12-09T04:06:07.331Z,82.90
2018-12-09T04:08:41.467Z,81.47
2018-12-09T04:11:18.535Z,80.78
2018-12-09T04:14:02.667Z,80.77
2018-12-09T04:16:36.626Z,81.44
2018-12-09T04:19:12.901Z,80.93
2018-12-09T04:21:47.467Z,81.76
2018-12-09T04:24:23.184Z,82.59
2018-12-09T04:26:55.994Z,83.34
2018-12-09T04:29:30.385Z,85.86
2018-12-09T04:32:09.039Z,86.42
2018-12-09T04:34:43.841Z,87.33
2018-12-09T04:37:18.825Z,87.36
2018-12-09T04:39:54.670Z,87.14
2018-12-09T04:42:28.988Z,88.35
2018-12-09T04:45:05.773Z,87.65
2018-12-09T04:47:39.795Z,86.81
2018-12-09T04:50:23.743Z,87.74
2018-12-09T04:52:58.044Z,87.96
2018-12-09T04:55:32.015Z,88.05
2018-12-09T04:58:08.195Z,87.59
2018-12-09T05:00:54.491Z,88.10
2018-12-09T05:03:28.840Z,89.18
2018-12-09T05:06:03.663Z,89.57
2018-12-09T05:08:35.435Z,88.74
2018-12-09T05:11:09.459Z,89.92
2018-12-09T05:13:52.452Z,90.65
2018-12-09T05:16:27.114Z,90.60
2018-12-09T05:18:59.037Z,91.88
2018-12-09T05:21:33.208Z,91.66
2018-12-09T05:24:05.648Z,89.60
2018-12-09T05:26:47.621Z,89.74
2018-12-09T05:29:21.871Z,88.16
2018-12-09T05:31:58.712Z,86.95
2018-12-09T05:34:33.536Z,86.11
2018-12-09T05:37:07.655Z,83.66
2018-12-09T05:39:38.418Z,82.35
2018-12-09T05:42:09.224Z,81.10
2018-12-09T05:44:39.959Z,80.74
2018-12-09T05:47:11.634Z,81.69
2018-12-09T05:49:42.658Z,80.65
2018-12-09T05:52:13.856Z,80.68
2018-12-09T05:54:44.643Z,79.30
2018-12-09T05:57:15.464Z,78.32
2018-12-09T05:59:49.483Z,80.03
2018-12-09T06:05:17.605Z,78.08
2018-12-09T06:07:51.971Z,77.02
2018-12-09T06:10:28.651Z,76.34
2018-12-09T06:13:05.987Z,75.82
2018-12-09T06:15:40.178Z,76.27
2018-12-09T06:18:12.992Z,75.49
2018-12-09T06:20:50.020Z,74.73
2018-12-09T06:23:20.808Z,74.45
2018-12-09T06:25:52.028Z,74.79
2018-12-09T06:28:23.275Z,74.52
2018-12-09T06:30:54.039Z,74.16
2018-12-09T06:33:28.218Z,74.35
2018-12-09T06:35:59.769Z,74.89
2018-12-09T06:38:33.678Z,74.00
2018-12-09T06:46:04.077Z,74.56
2018-12-09T06:48:34.951Z,73.99
2018-12-09T06:51:05.763Z,73.86
2018-12-09T06:53:36.659Z,74.50
2018-12-09T06:56:09.046Z,73.17
2018-12-09T06:58:40.484Z,73.58
2018-12-09T07:01:11.671Z,72.49
2018-12-09T07:03:42.448Z,71.94
2018-12-09T07:06:18.384Z,72.11
2018-12-09T07:08:51.752Z,71.88
2018-12-09T07:11:22.495Z,72.49
2018-12-09T07:13:53.662Z,72.16
2018-12-09T07:16:24.736Z,71.48
2018-12-09T07:18:55.560Z,71.81
2018-12-09T07:21:27.555Z,71.73
2018-12-09T07:23:58.643Z,72.16
2018-12-09T07:26:29.676Z,71.67
2018-12-09T07:29:00.563Z,71.86
2018-12-09T07:31:31.539Z,70.37
2018-12-09T07:34:02.636Z,70.19
2018-12-09T07:36:33.510Z,70.43
2018-12-09T07:39:05.828Z,72.05
2018-12-09T07:41:36.595Z,70.03
2018-12-09T07:44:08.697Z,69.84
2018-12-09T07:46:39.488Z,69.51
2018-12-09T07:49:10.286Z,69.20
2018-12-09T07:51:41.112Z,69.98
2018-12-09T07:54:12.186Z,69.52
2018-12-09T07:56:43.015Z,69.51
2018-12-09T07:59:13.891Z,69.28
2018-12-09T08:01:44.766Z,69.34
2018-12-09T08:04:16.053Z,69.38
2018-12-09T08:06:46.957Z,70.51
2018-12-09T08:09:19.329Z,69.53
2018-12-09T08:11:50.174Z,69.41
2018-12-09T08:14:28.786Z,70.38
2018-12-09T08:16:59.578Z,69.76
2018-12-09T08:19:30.359Z,70.33
2018-12-09T08:22:01.499Z,69.62
2018-12-09T08:24:33.744Z,69.88
2018-12-09T08:27:04.624Z,70.09
2018-12-09T08:29:35.797Z,70.27
2018-12-09T08:32:06.707Z,70.42
2018-12-09T08:34:38.333Z,69.38
2018-12-09T08:37:09.160Z,69.70
2018-12-09T08:39:39.932Z,70.37
2018-12-09T08:42:10.682Z,69.36
2018-12-09T08:48:40.068Z,69.37
2018-12-09T08:51:16.522Z,70.00
2018-12-09T08:53:47.480Z,70.63
2018-12-09T08:56:18.732Z,70.53
2018-12-09T08:58:50.137Z,69.55
2018-12-09T09:01:20.880Z,69.29
2018-12-09T09:03:52.768Z,69.96
2018-12-09T09:06:24.193Z,69.26
2018-12-09T09:08:55.027Z,67.88
2018-12-09T09:11:26.369Z,67.85
2018-12-09T09:13:57.596Z,68.82
2018-12-09T09:16:29.187Z,68.48
2018-12-09T09:19:00.015Z,69.35
2018-12-09T09:21:30.736Z,69.65
2018-12-09T09:24:03.563Z,70.06
2018-12-09T09:26:40.140Z,71.17
2018-12-09T09:29:14.518Z,72.06
2018-12-09T09:31:52.312Z,72.79
2018-12-09T09:34:30.148Z,74.93
2018-12-09T09:37:02.360Z,76.81
2018-12-09T09:39:36.588Z,77.70
2018-12-09T09:42:10.084Z,78.44
2018-12-09T09:44:44.840Z,79.20
2018-12-09T09:47:17.530Z,80.42
2018-12-09T09:54:52.513Z,82.29
2018-12-09T09:57:25.603Z,81.31
2018-12-09T09:59:59.831Z,80.94
2018-12-09T10:02:36.186Z,82.11
2018-12-09T10:05:28.089Z,81.54
2018-12-09T10:08:11.941Z,82.51
2018-12-09T10:10:46.795Z,83.12
2018-12-09T10:16:14.199Z,84.05
2018-12-09T10:18:45.999Z,84.82
2018-12-09T10:21:21.239Z,82.88
2018-12-09T10:23:57.244Z,83.36
2018-12-09T10:26:36.569Z,84.54
2018-12-09T10:29:12.277Z,84.44
2018-12-09T10:31:49.118Z,84.86
2018-12-09T10:34:38.735Z,85.15
2018-12-09T10:37:18.011Z,86.02
2018-12-09T10:39:49.310Z,85.40
2018-12-09T10:42:20.350Z,87.35
2018-12-09T10:44:52.976Z,87.57
2018-12-09T10:47:24.905Z,87.58
2018-12-09T10:49:55.732Z,88.03
2018-12-09T10:52:26.908Z,89.67
2018-12-09T10:54:57.943Z,90.43
2018-12-09T10:57:29.098Z,90.68
2018-12-09T11:00:05.485Z,89.10
2018-12-09T11:02:39.869Z,89.06
2018-12-09T11:05:12.353Z,87.74
2018-12-09T11:07:49.857Z,89.36
2018-12-09T11:10:26.254Z,89.37
2018-12-09T11:13:02.278Z,89.03
2018-12-09T11:15:35.241Z,88.78
2018-12-09T11:18:16.507Z,88.53
2018-12-09T11:20:50.749Z,89.29
2018-12-09T11:23:24.771Z,88.62
2018-12-09T11:26:02.458Z,88.68
2018-12-09T11:28:51.760Z,88.77
2018-12-09T11:31:32.715Z,88.34
2018-12-09T11:34:08.296Z,89.51
2018-12-09T11:36:41.666Z,88.88
2018-12-09T11:39:12.594Z,89.43
2018-12-09T11:41:43.736Z,89.91
2018-12-09T11:47:22.191Z,90.23
2018-12-09T11:49:53.345Z,90.91
2018-12-09T11:52:24.242Z,89.98
2018-12-09T11:54:55.157Z,90.11
2018-12-09T11:57:26.060Z,90.32
2018-12-09T11:59:56.889Z,90.67
2018-12-09T12:02:28.518Z,91.09
2018-12-09T12:04:59.535Z,91.29
2018-12-09T12:07:44.021Z,91.38
2018-12-09T12:10:18.864Z,92.69
2018-12-09T12:12:55.033Z,92.49
2018-12-09T12:15:31.067Z,93.80
2018-12-09T12:18:02.537Z,93.59
2018-12-09T12:20:33.444Z,93.39
2018-12-09T12:23:10.108Z,94.27
2018-12-09T12:25:46.628Z,93.74
2018-12-09T12:28:23.027Z,93.09
2018-12-09T12:30:53.873Z,92.84
2018-12-09T12:33:24.950Z,93.49
2018-12-09T12:35:56.371Z,92.20
2018-12-09T12:38:27.167Z,92.58
2018-12-09T12:40:57.984Z,92.72
2018-12-09T12:43:31.085Z,92.36
2018-12-09T13:06:09.355Z,93.66
2018-12-09T13:08:40.228Z,95.10
2018-12-09T13:11:10.943Z,96.66
2018-12-09T13:13:41.733Z,94.97
2018-12-09T13:16:19.802Z,95.55
2018-12-09T13:18:50.497Z,94.52
2018-12-09T13:21:21.598Z,95.07
2018-12-09T13:23:52.424Z,94.02
2018-12-09T13:26:23.496Z,94.52
2018-12-09T13:28:54.329Z,93.56
2018-12-09T13:31:32.155Z,93.93
2018-12-09T13:34:05.504Z,93.38
2018-12-09T13:36:36.711Z,92.83
2018-12-09T13:39:08.280Z,92.75
2018-12-09T13:41:39.053Z,92.56
2018-12-09T13:44:15.552Z,94.13
2018-12-09T13:46:46.470Z,93.36
2018-12-09T13:49:17.224Z,94.55
2018-12-09T13:51:47.925Z,92.53
2018-12-09T13:54:19.008Z,93.95
2018-12-09T13:56:49.769Z,93.53
2018-12-09T13:59:20.478Z,93.45
2018-12-09T14:01:51.278Z,92.93
2018-12-09T14:04:22.107Z,93.25
2018-12-09T14:06:53.083Z,92.09
2018-12-09T14:09:23.890Z,92.71
2018-12-09T14:11:55.141Z,93.39
2018-12-09T14:14:26.312Z,93.86
2018-12-09T14:16:57.044Z,94.52
2018-12-09T14:19:27.854Z,95.72
2018-12-09T14:21:58.683Z,94.40
2018-12-09T14:24:29.523Z,94.52
2018-12-09T14:27:00.586Z,94.78
2018-12-09T14:29:31.400Z,94.51
2018-12-09T14:32:02.599Z,94.20
2018-12-09T14:34:33.704Z,93.66
2018-12-09T14:37:04.546Z,93.70
2018-12-09T14:39:35.267Z,94.20
2018-12-09T14:42:06.008Z,94.29
2018-12-09T14:44:38.886Z,94.04
2018-12-09T14:47:09.740Z,93.75
2018-12-09T14:49:40.680Z,93.10
2018-12-09T14:52:11.528Z,93.47
2018-12-09T14:54:44.680Z,94.11
2018-12-09T14:57:15.469Z,93.51
2018-12-09T14:59:46.243Z,94.80
2018-12-09T15:02:17.081Z,94.99
2018-12-09T15:04:47.967Z,94.37
2018-12-09T15:07:18.667Z,95.73
2018-12-09T15:09:49.581Z,95.35
2018-12-09T15:12:21.090Z,96.22
2018-12-09T15:14:51.811Z,96.48
2018-12-09T15:17:22.597Z,96.50
2018-12-09T15:19:53.887Z,96.76
2018-12-09T15:22:24.669Z,97.27
2018-12-09T15:24:55.420Z,96.37
2018-12-09T15:27:26.494Z,97.38
2018-12-09T15:29:58.666Z,97.77
2018-12-09T15:32:37.591Z,99.03
2018-12-09T15:35:10.183Z,97.10
2018-12-09T15:37:44.195Z,98.45
2018-12-09T15:40:15.519Z,97.40
2018-12-09T15:42:54.827Z,97.90
2018-12-09T15:45:28.743Z,98.04
2018-12-09T15:48:00.095Z,97.41
2018-12-09T15:50:30.879Z,98.18
2018-12-09T15:53:01.692Z,98.07
2018-12-09T15:55:34.833Z,97.57
2018-12-09T15:58:05.679Z,97.37
2018-12-09T16:00:39.133Z,96.80
2018-12-09T16:03:09.979Z,96.50
2018-12-09T16:05:41.936Z,97.46
2018-12-09T16:08:15.125Z,98.43
2018-12-09T16:10:47.921Z,97.69
2018-12-09T16:13:19.904Z,98.35
2018-12-09T16:15:51.295Z,98.93
2018-12-09T16:18:29.785Z,99.79
2018-12-09T16:21:02.834Z,100.00
2018-12-09T16:23:37.067Z,99.90
2018-12-09T16:26:09.435Z,98.92
2018-12-09T16:28:41.769Z,98.85
2018-12-09T16:31:15.913Z,99.47
2018-12-09T16:33:52.243Z,100.00
2018-12-09T16:53:02.639Z,97.36
2018-12-09T16:55:35.579Z,97.66
2018-12-09T16:58:08.540Z,97.39
2018-12-09T17:00:39.553Z,97.17
2018-12-09T17:03:14.741Z,97.51
2018-12-09T17:06:03.011Z,98.01
2018-12-09T17:08:38.707Z,97.50
2018-12-09T17:11:15.357Z,97.90
2018-12-09T17:13:51.668Z,97.82
2018-12-09T17:16:38.506Z,96.72
2018-12-09T17:19:19.947Z,97.90
2018-12-09T17:21:56.486Z,97.21
2018-12-09T17:24:29.295Z,94.20
2018-12-09T17:27:05.260Z,93.40
2018-12-09T17:29:43.640Z,93.91
2018-12-09T17:32:15.999Z,94.42
2018-12-09T17:34:50.428Z,94.42
2018-12-09T17:37:24.953Z,92.96
2018-12-09T17:39:59.361Z,93.48
2018-12-09T17:42:37.378Z,94.48
2018-12-09T17:45:14.363Z,94.51
2018-12-09T17:48:05.100Z,95.03
2018-12-09T17:50:47.752Z,96.43
2018-12-09T17:53:21.890Z,96.22
2018-12-09T17:55:56.451Z,95.56
2018-12-09T17:58:33.117Z,96.43
2018-12-09T18:01:13.212Z,96.45
2018-12-09T18:03:44.325Z,95.73
2018-12-09T18:06:16.159Z,95.50
2018-12-09T18:08:53.585Z,96.67
2018-12-09T18:23:37.242Z,98.78
2018-12-09T18:26:14.037Z,98.70
2018-12-09T18:28:51.144Z,97.69
2018-12-09T18:31:42.730Z,97.61
2018-12-09T18:34:14.856Z,96.65
2018-12-09T18:36:48.463Z,95.64
2018-12-09T18:39:21.014Z,96.84
2018-12-09T18:41:51.876Z,96.84
2018-12-09T18:44:23.049Z,98.24
2018-12-09T18:46:57.241Z,98.16
2018-12-09T18:49:29.530Z,96.04
2018-12-09T18:52:00.504Z,96.52
2018-12-09T18:54:32.574Z,96.03
2018-12-09T18:57:04.317Z,95.97
2018-12-09T18:59:35.904Z,96.91
2018-12-09T19:02:06.887Z,97.20
2018-12-09T19:04:39.277Z,96.45
2018-12-09T19:07:11.031Z,95.66
2018-12-09T19:09:42.300Z,95.97
2018-12-09T19:12:13.465Z,94.84
2018-12-09T19:17:39.400Z,94.85
2018-12-09T19:20:10.404Z,94.18
2018-12-09T19:28:34.857Z,94.33
2018-12-09T19:31:07.180Z,92.82
2018-12-09T19:33:38.070Z,92.01
2018-12-09T19:36:09.901Z,92.01
2018-12-09T19:38:40.741Z,92.86
2018-12-09T19:41:11.499Z,92.53
2018-12-09T19:43:43.506Z,92.19
2018-12-09T19:46:16.720Z,91.88
2018-12-09T19:51:39.083Z,90.25
2018-12-09T19:54:09.891Z,90.25
2018-12-09T19:56:40.697Z,89.99
2018-12-09T19:59:11.551Z,88.96
2018-12-09T20:01:43.545Z,88.82
2018-12-09T20:04:14.471Z,87.31
2018-12-09T20:06:45.281Z,87.65
2018-12-09T20:12:31.319Z,86.18
2018-12-09T20:15:02.167Z,86.51
2018-12-09T20:17:33.303Z,86.70
2018-12-09T20:20:04.281Z,86.22
2018-12-09T20:22:35.145Z,86.11
2018-12-09T20:25:06.793Z,85.14
2018-12-09T20:27:37.964Z,85.01
2018-12-09T20:30:11.084Z,85.84
2018-12-09T20:32:42.015Z,84.51
2018-12-09T20:35:15.338Z,85.66
2018-12-09T20:37:47.680Z,84.62
2018-12-09T20:40:18.704Z,85.35
2018-12-09T20:42:50.333Z,84.62
2018-12-09T20:45:21.168Z,85.07
2018-12-09T20:47:52.348Z,84.58
2018-12-09T20:50:25.443Z,84.77
2018-12-09T20:52:56.791Z,83.80
2018-12-09T20:55:27.623Z,83.33
2018-12-09T20:57:58.571Z,83.03
2018-12-09T21:00:29.636Z,82.44
2018-12-09T21:03:01.841Z,83.15
2018-12-09T21:05:33.063Z,83.13
2018-12-09T21:08:04.743Z,82.16
2018-12-09T21:10:35.996Z,81.88
2018-12-09T21:13:06.866Z,81.94
2018-12-09T21:15:38.200Z,82.57
2018-12-09T21:18:09.788Z,82.54
2018-12-09T21:20:40.801Z,82.64
2018-12-09T21:23:12.604Z,83.12
2018-12-09T21:25:44.902Z,83.83
2018-12-09T21:28:15.779Z,84.80
2018-12-09T21:30:47.034Z,84.39
2018-12-09T21:33:18.845Z,83.80
2018-12-09T21:35:50.440Z,83.40
2018-12-09T21:38:21.579Z,83.30
2018-12-09T21:40:56.253Z,84.06
2018-12-09T21:43:28.381Z,83.80
2018-12-09T21:45:59.265Z,83.15
2018-12-09T21:48:32.468Z,83.07
2018-12-09T21:51:03.292Z,82.97
2018-12-09T21:53:34.157Z,84.16
2018-12-09T21:56:05.863Z,83.59
2018-12-09T21:58:36.747Z,82.89
2018-12-09T22:01:07.694Z,81.52
2018-12-09T22:03:52.869Z,81.04
2018-12-09T22:06:29.352Z,81.62
2018-12-09T22:09:01.368Z,81.27
2018-12-09T22:11:32.764Z,81.31
2018-12-09T22:14:03.701Z,81.55
2018-12-09T22:16:34.931Z,81.35
2018-12-09T22:19:06.364Z,81.53
2018-12-09T22:21:37.217Z,81.60
2018-12-09T22:24:08.284Z,80.91
2018-12-09T22:26:39.197Z,81.63
2018-12-09T22:29:10.792Z,81.81
2018-12-09T22:31:41.999Z,82.34
2018-12-09T22:34:14.807Z,80.96
2018-12-09T22:36:45.839Z,80.94
2018-12-09T22:39:31.931Z,80.71
2018-12-09T22:42:06.993Z,80.36
2018-12-09T22:44:38.294Z,80.09
2018-12-09T22:47:16.035Z,79.52
2018-12-09T22:49:46.831Z,79.73
2018-12-09T22:52:21.649Z,79.97
2018-12-09T22:54:53.318Z,79.37
2018-12-09T22:57:24.115Z,78.69
2018-12-09T22:59:54.936Z,78.99
2018-12-09T23:02:32.953Z,78.72
2018-12-09T23:05:04.027Z,77.86
2018-12-09T23:07:40.080Z,78.12
2018-12-09T23:10:11.007Z,78.30
2018-12-09T23:12:41.935Z,77.40
2018-12-09T23:15:12.923Z,76.41
2018-12-09T23:17:43.867Z,76.78
2018-12-09T23:20:14.902Z,76.04
2018-12-09T23:22:55.893Z,76.76
2018-12-09T23:25:26.907Z,76.82
2018-12-09T23:27:57.769Z,77.03
2018-12-09T23:30:29.741Z,77.30
2018-12-09T23:33:01.247Z,76.88
2018-12-09T23:35:32.348Z,76.74
2018-12-09T23:38:03.466Z,76.48
2018-12-09T23:40:34.495Z,77.26
2018-12-09T23:43:05.444Z,75.80
2018-12-09T23:45:36.273Z,76.18
2018-12-09T23:48:07.077Z,77.21
2018-12-09T23:50:38.007Z,75.11
2018-12-09T23:53:09.435Z,76.89
2018-12-09T23:55:40.292Z,76.26
2018-12-09T23:58:11.197Z,77.41
